createdAt,value
2022-11-27T00:02:00.835Z,2.41
2022-11-27T00:07:02.522Z,2.37
2022-11-27T00:12:04.604Z,1.82
2022-11-27T00:17:06.334Z,1.67
2022-11-27T00:22:08.108Z,1.77
2022-11-27T00:27:10.189Z,1.91
2022-11-27T00:32:13.209Z,2.03
2022-11-27T00:37:15.074Z,2.13
2022-11-27T00:42:16.819Z,2.20
2022-11-27T00:47:19.566Z,2.22
2022-11-27T00:52:21.258Z,2.21
2022-11-27T00:57:23.109Z,2.06
2022-11-27T01:02:24.882Z,1.71
2022-11-27T01:07:26.862Z,1.65
2022-11-27T01:12:28.676Z,1.75
2022-11-27T01:17:30.421Z,1.86
2022-11-27T01:22:33.318Z,1.97
2022-11-27T01:27:35.088Z,1.99
2022-11-27T01:32:36.764Z,2.08
2022-11-27T01:37:38.460Z,2.15
2022-11-27T01:42:40.196Z,2.20
2022-11-27T01:47:58.284Z,2.24
2022-11-27T01:53:05.656Z,2.17
2022-11-27T01:58:11.280Z,2.07
2022-11-27T02:03:13.145Z,2.03
2022-11-27T02:08:16.869Z,1.98
2022-11-27T02:13:35.295Z,1.95
2022-11-27T02:18:59.323Z,1.85
2022-11-27T02:24:07.057Z,1.85
2022-11-27T02:29:11.029Z,1.91
2022-11-27T02:34:36.255Z,1.92
2022-11-27T02:39:45.145Z,1.94
2022-11-27T02:45:00.564Z,1.91
2022-11-27T02:50:03.570Z,1.91
2022-11-27T02:55:11.337Z,1.96
2022-11-27T03:00:14.456Z,1.95
2022-11-27T03:05:20.359Z,1.91
2022-11-27T03:10:44.159Z,1.92
2022-11-27T03:16:01.302Z,1.87
2022-11-27T03:21:38.835Z,1.83
2022-11-27T03:26:41.113Z,1.79
2022-11-27T03:31:43.980Z,1.80
2022-11-27T03:36:46.273Z,1.84
2022-11-27T03:42:17.228Z,1.85
2022-11-27T03:47:46.995Z,1.90
2022-11-27T03:53:07.694Z,1.92
2022-11-27T03:58:19.303Z,1.93
2022-11-27T04:03:25.521Z,1.95
2022-11-27T04:08:27.391Z,1.84
2022-11-27T04:13:29.330Z,1.79
2022-11-27T04:18:31.089Z,1.70
2022-11-27T04:23:32.890Z,1.64
2022-11-27T04:28:34.703Z,1.71
2022-11-27T04:33:36.463Z,1.56
2022-11-27T04:38:38.125Z,1.54
2022-11-27T04:43:39.817Z,1.57
2022-11-27T04:48:41.557Z,1.58
2022-11-27T04:53:43.345Z,1.57
2022-11-27T04:58:45.031Z,1.54
2022-11-27T05:03:47.916Z,1.55
2022-11-27T05:08:49.671Z,1.61
2022-11-27T05:14:11.541Z,1.59
2022-11-27T05:19:14.441Z,1.57
2022-11-27T05:24:17.850Z,1.55
2022-11-27T05:29:20.996Z,1.68
2022-11-27T05:34:22.969Z,1.74
2022-11-27T05:39:24.796Z,1.64
2022-11-27T05:44:26.925Z,1.63
2022-11-27T05:49:28.654Z,1.66
2022-11-27T05:54:30.557Z,1.79
2022-11-27T05:59:32.318Z,1.80
2022-11-27T06:04:34.675Z,1.84
2022-11-27T06:09:39.436Z,1.85
2022-11-27T06:14:42.014Z,1.91
2022-11-27T06:19:43.939Z,2.04
2022-11-27T06:24:45.639Z,2.12
2022-11-27T06:29:47.338Z,2.20
2022-11-27T06:34:49.008Z,2.22
2022-11-27T06:39:51.285Z,2.20
2022-11-27T06:44:52.971Z,2.11
2022-11-27T06:49:54.656Z,2.10
2022-11-27T06:54:56.354Z,2.11
2022-11-27T06:59:58.015Z,2.04
2022-11-27T07:04:59.670Z,2.03
2022-11-27T07:10:01.394Z,2.02
2022-11-27T07:15:04.531Z,2.11
2022-11-27T07:20:07.214Z,2.13
2022-11-27T07:25:09.188Z,2.13
2022-11-27T07:30:11.335Z,2.14
2022-11-27T07:35:13.197Z,2.19
2022-11-27T07:40:15.180Z,2.30
2022-11-27T07:45:16.962Z,2.42
2022-11-27T07:50:18.696Z,2.55
2022-11-27T07:55:20.367Z,2.66
2022-11-27T08:00:22.324Z,2.66
2022-11-27T08:05:24.070Z,2.62
2022-11-27T08:10:25.780Z,2.87
2022-11-27T08:15:27.529Z,2.78
2022-11-27T08:20:30.016Z,2.72
2022-11-27T08:25:32.197Z,2.80
2022-11-27T08:30:34.001Z,2.89
2022-11-27T08:35:36.063Z,2.96
2022-11-27T08:40:37.851Z,3.05
2022-11-27T08:45:39.772Z,2.99
2022-11-27T08:50:41.662Z,3.03
2022-11-27T08:55:44.359Z,3.12
2022-11-27T09:00:46.113Z,3.09
2022-11-27T09:05:47.802Z,3.06
2022-11-27T09:10:49.557Z,3.23
2022-11-27T09:15:51.321Z,3.30
2022-11-27T09:21:01.596Z,3.28
2022-11-27T09:26:06.144Z,4.03
2022-11-27T09:31:09.988Z,4.51
2022-11-27T09:36:15.708Z,4.16
2022-11-27T09:41:36.587Z,3.96
2022-11-27T09:46:41.181Z,3.88
2022-11-27T09:51:54.581Z,3.88
2022-11-27T09:56:58.320Z,3.85
2022-11-27T10:02:00.260Z,3.92
2022-11-27T10:07:20.128Z,4.00
2022-11-27T10:12:38.317Z,3.89
2022-11-27T10:17:52.414Z,3.82
2022-11-27T10:23:28.806Z,3.86
2022-11-27T10:28:40.229Z,3.97
2022-11-27T10:33:46.233Z,4.00
2022-11-27T10:38:48.964Z,4.03
2022-11-27T10:43:56.266Z,4.07
2022-11-27T10:48:58.414Z,4.07
2022-11-27T10:54:02.405Z,4.05
2022-11-27T10:59:18.629Z,4.11
2022-11-27T11:04:38.063Z,4.17
2022-11-27T11:09:47.013Z,4.22
2022-11-27T11:15:00.384Z,4.32
2022-11-27T11:20:18.816Z,4.39
2022-11-27T11:25:22.122Z,4.42
2022-11-27T11:30:28.375Z,4.40
2022-11-27T11:35:37.012Z,4.37
2022-11-27T11:40:40.054Z,4.38
2022-11-27T11:45:48.790Z,4.47
2022-11-27T11:50:59.920Z,4.60
2022-11-27T11:56:10.814Z,4.63
2022-11-27T12:01:31.241Z,4.70
2022-11-27T12:06:48.133Z,4.67
2022-11-27T12:12:01.487Z,4.70
2022-11-27T12:17:07.173Z,4.79
2022-11-27T12:22:37.590Z,4.79
2022-11-27T12:27:59.899Z,4.85
2022-11-27T12:33:27.167Z,4.90
2022-11-27T12:38:34.756Z,4.91
2022-11-27T12:43:51.977Z,4.94
2022-11-27T12:48:58.808Z,5.05
2022-11-27T12:54:14.443Z,5.07
2022-11-27T12:59:33.135Z,5.17
2022-11-27T13:04:44.126Z,5.22
2022-11-27T13:09:50.531Z,5.29
2022-11-27T13:15:00.697Z,5.29
2022-11-27T13:20:05.962Z,5.31
2022-11-27T13:25:14.566Z,5.40
2022-11-27T13:30:21.307Z,5.42
2022-11-27T13:35:29.347Z,5.52
2022-11-27T13:40:37.386Z,5.54
2022-11-27T13:45:39.846Z,5.65
2022-11-27T13:50:45.532Z,5.70
2022-11-27T13:55:56.639Z,5.72
2022-11-27T14:01:00.024Z,5.63
2022-11-27T14:06:01.931Z,5.62
2022-11-27T14:11:08.571Z,5.66
2022-11-27T14:16:34.204Z,5.59
2022-11-27T14:21:41.742Z,5.58
2022-11-27T14:26:43.705Z,5.52
2022-11-27T14:31:45.478Z,5.55
2022-11-27T14:36:52.911Z,5.62
2022-11-27T14:41:58.302Z,5.63
2022-11-27T14:47:06.620Z,5.65
2022-11-27T14:52:16.362Z,5.64
2022-11-27T14:57:36.533Z,5.61
2022-11-27T15:02:38.400Z,5.48
2022-11-27T15:07:47.915Z,5.46
2022-11-27T15:12:52.551Z,5.43
2022-11-27T15:17:58.022Z,5.42
2022-11-27T15:23:00.153Z,5.44
2022-11-27T15:28:02.820Z,5.47
2022-11-27T15:33:04.636Z,5.48
2022-11-27T15:38:10.861Z,5.51
2022-11-27T15:43:16.315Z,5.51
2022-11-27T15:48:19.109Z,5.49
2022-11-27T15:53:20.789Z,5.47
2022-11-27T15:58:22.468Z,5.49
2022-11-27T16:03:24.225Z,5.49
2022-11-27T16:08:25.963Z,5.48
2022-11-27T16:13:28.041Z,5.46
2022-11-27T16:18:32.753Z,5.44
2022-11-27T16:23:35.219Z,5.38
2022-11-27T16:28:37.327Z,5.27
2022-11-27T16:33:39.244Z,5.28
2022-11-27T16:38:42.249Z,5.33
2022-11-27T16:43:46.756Z,5.29
2022-11-27T16:48:50.008Z,5.17
2022-11-27T16:53:54.748Z,5.10
2022-11-27T16:59:02.735Z,5.03
2022-11-27T17:04:09.021Z,5.01
2022-11-27T17:09:11.046Z,4.97
2022-11-27T17:14:12.787Z,4.94
2022-11-27T17:19:16.130Z,4.91
2022-11-27T17:24:19.798Z,4.98
2022-11-27T17:29:22.976Z,5.03
2022-11-27T17:34:24.759Z,5.01
2022-11-27T17:39:26.783Z,5.07
2022-11-27T17:44:28.710Z,5.03
2022-11-27T17:49:30.378Z,5.01
2022-11-27T17:54:32.028Z,4.90
2022-11-27T17:59:35.073Z,4.83
2022-11-27T18:04:36.908Z,4.79
2022-11-27T18:09:39.136Z,4.84
2022-11-27T18:14:41.061Z,4.92
2022-11-27T18:19:43.352Z,4.94
2022-11-27T18:24:45.866Z,4.90
2022-11-27T18:29:47.620Z,4.81
2022-11-27T18:34:53.031Z,4.74
2022-11-27T18:39:54.818Z,4.80
2022-11-27T18:44:56.519Z,4.76
2022-11-27T18:49:59.680Z,4.72
2022-11-27T18:55:02.871Z,4.75
2022-11-27T19:00:04.845Z,4.71
2022-11-27T19:05:07.287Z,4.72
2022-11-27T19:10:09.469Z,4.71
2022-11-27T19:15:11.337Z,4.67
2022-11-27T19:20:13.925Z,4.70
2022-11-27T19:25:16.861Z,4.72
2022-11-27T19:30:18.636Z,4.76
2022-11-27T19:35:24.456Z,4.71
2022-11-27T19:40:29.958Z,4.68
2022-11-27T19:45:35.122Z,4.60
2022-11-27T19:50:36.767Z,4.55
2022-11-27T19:55:38.669Z,4.60
2022-11-27T20:00:41.217Z,4.59
2022-11-27T20:05:42.998Z,4.60
2022-11-27T20:10:49.667Z,4.53
2022-11-27T20:15:52.833Z,4.58
2022-11-27T20:21:06.158Z,4.62
2022-11-27T20:26:13.521Z,4.61
2022-11-27T20:31:18.349Z,4.69
2022-11-27T20:36:21.842Z,4.67
2022-11-27T20:41:24.637Z,4.73
2022-11-27T20:46:27.053Z,4.77
2022-11-27T20:51:33.531Z,4.72
2022-11-27T20:56:44.737Z,4.71
2022-11-27T21:01:46.750Z,4.69
2022-11-27T21:06:50.187Z,4.74
2022-11-27T21:11:54.114Z,4.78
2022-11-27T21:17:04.289Z,4.74
2022-11-27T21:22:08.283Z,4.70
2022-11-27T21:27:11.134Z,4.69
2022-11-27T21:32:13.052Z,4.74
2022-11-27T21:37:15.144Z,4.73
2022-11-27T21:42:17.903Z,4.69
2022-11-27T21:47:19.613Z,4.73
2022-11-27T21:52:21.632Z,4.73
2022-11-27T21:57:23.744Z,4.70
2022-11-27T22:02:25.670Z,4.66
2022-11-27T22:07:27.475Z,4.63
2022-11-27T22:12:29.294Z,4.62
2022-11-27T22:17:31.188Z,4.64
2022-11-27T22:22:33.025Z,4.63
2022-11-27T22:27:34.740Z,4.59
2022-11-27T22:32:36.583Z,4.56
2022-11-27T22:37:38.736Z,4.61
2022-11-27T22:42:40.560Z,4.58
2022-11-27T22:47:42.680Z,4.50
2022-11-27T22:52:44.717Z,4.56
2022-11-27T22:57:46.402Z,4.59
2022-11-27T23:02:48.491Z,4.58
2022-11-27T23:07:50.301Z,4.53
2022-11-27T23:12:52.065Z,4.50
2022-11-27T23:17:53.734Z,4.51
2022-11-27T23:22:55.613Z,4.55
2022-11-27T23:27:57.333Z,4.58
2022-11-27T23:32:59.229Z,4.64
2022-11-27T23:38:01.415Z,4.61
2022-11-27T23:43:03.101Z,4.62
2022-11-27T23:48:04.837Z,4.63
2022-11-27T23:53:06.624Z,4.63
2022-11-27T23:58:08.308Z,4.68
